Terminal Aerodrome Forecast
Issued by NWS St Louis, MO

Home | Current Version | Previous Version | Text Only | Print | Product List | Glossary On
Versions: 1 2 3 4 5 6 7 8 9 10 11 12 13 14 15 16 17 18 19 20 21 22 23 24 25 26 27 28 29 30 31 32 33 34
531
FTUS43 KLSX 291458 AAB
TAFSTL
TAF AMD
KSTL 291458Z 2915/3018 11012G20KT P6SM VCSH BKN015 OVC025
     FM291800 11012G17KT P6SM OVC025
     FM300600 12012KT 5SM -SHRA VCTS BKN015CB
     FM301000 14008KT P6SM VCSH OVC008
     FM301400 14011KT P6SM VCSH BKN018=

USA.gov is the U.S. government's official web portal to all federal, state and local government web resources and services.